sensor_id;sensor_type;location;lat;lon;timestamp;P1;durP1;ratioP1;P2;durP2;ratioP2
74241;SDS011;62599;49.146;10.426;2022-10-31T00:01:17;21.48;;;10.40;;
74241;SDS011;62599;49.146;10.426;2022-10-31T00:03:42;17.50;;;7.88;;
74241;SDS011;62599;49.146;10.426;2022-10-31T00:06:07;17.53;;;8.03;;
74241;SDS011;62599;49.146;10.426;2022-10-31T00:08:32;14.80;;;8.63;;
74241;SDS011;62599;49.146;10.426;2022-10-31T00:11:00;13.50;;;7.80;;
74241;SDS011;62599;49.146;10.426;2022-10-31T00:13:25;25.27;;;10.50;;
74241;SDS011;62599;49.146;10.426;2022-10-31T00:15:53;18.47;;;9.27;;
74241;SDS011;62599;49.146;10.426;2022-10-31T00:18:18;18.67;;;8.27;;
74241;SDS011;62599;49.146;10.426;2022-10-31T00:20:46;19.30;;;8.17;;
74241;SDS011;62599;49.146;10.426;2022-10-31T00:23:11;18.27;;;7.72;;
74241;SDS011;62599;49.146;10.426;2022-10-31T00:25:37;18.60;;;7.97;;
74241;SDS011;62599;49.146;10.426;2022-10-31T00:28:03;17.52;;;8.63;;
74241;SDS011;62599;49.146;10.426;2022-10-31T00:30:29;16.58;;;7.50;;
74241;SDS011;62599;49.146;10.426;2022-10-31T00:32:54;14.37;;;8.10;;
74241;SDS011;62599;49.146;10.426;2022-10-31T00:35:19;15.57;;;7.10;;
74241;SDS011;62599;49.146;10.426;2022-10-31T00:37:45;15.37;;;7.70;;
74241;SDS011;62599;49.146;10.426;2022-10-31T00:40:10;13.53;;;7.83;;
74241;SDS011;62599;49.146;10.426;2022-10-31T00:42:35;15.93;;;8.18;;
74241;SDS011;62599;49.146;10.426;2022-10-31T00:45:01;17.67;;;7.20;;
74241;SDS011;62599;49.146;10.426;2022-10-31T00:47:26;13.27;;;6.53;;
74241;SDS011;62599;49.146;10.426;2022-10-31T00:49:51;15.17;;;7.60;;
74241;SDS011;62599;49.146;10.426;2022-10-31T00:52:16;14.67;;;6.80;;
74241;SDS011;62599;49.146;10.426;2022-10-31T00:54:41;11.90;;;6.73;;
74241;SDS011;62599;49.146;10.426;2022-10-31T00:57:07;13.03;;;5.97;;
74241;SDS011;62599;49.146;10.426;2022-10-31T00:59:32;14.57;;;6.80;;
74241;SDS011;62599;49.146;10.426;2022-10-31T01:01:57;11.33;;;6.77;;
74241;SDS011;62599;49.146;10.426;2022-10-31T01:04:22;11.67;;;6.37;;
74241;SDS011;62599;49.146;10.426;2022-10-31T01:06:47;12.90;;;7.50;;
74241;SDS011;62599;49.146;10.426;2022-10-31T01:09:13;15.10;;;7.53;;
74241;SDS011;62599;49.146;10.426;2022-10-31T01:11:38;12.43;;;7.60;;
74241;SDS011;62599;49.146;10.426;2022-10-31T01:14:03;13.80;;;7.10;;
74241;SDS011;62599;49.146;10.426;2022-10-31T01:16:28;12.30;;;6.60;;
74241;SDS011;62599;49.146;10.426;2022-10-31T01:18:56;14.95;;;7.57;;
74241;SDS011;62599;49.146;10.426;2022-10-31T01:21:23;15.03;;;7.67;;
74241;SDS011;62599;49.146;10.426;2022-10-31T01:23:49;12.40;;;6.93;;
74241;SDS011;62599;49.146;10.426;2022-10-31T01:26:15;13.57;;;7.68;;
74241;SDS011;62599;49.146;10.426;2022-10-31T01:28:45;12.88;;;7.00;;
74241;SDS011;62599;49.146;10.426;2022-10-31T01:31:11;14.68;;;7.07;;
74241;SDS011;62599;49.146;10.426;2022-10-31T01:33:36;11.13;;;6.30;;
74241;SDS011;62599;49.146;10.426;2022-10-31T01:36:10;12.00;;;6.43;;
74241;SDS011;62599;49.146;10.426;2022-10-31T01:38:35;10.00;;;5.85;;
74241;SDS011;62599;49.146;10.426;2022-10-31T01:41:01;11.47;;;6.73;;
74241;SDS011;62599;49.146;10.426;2022-10-31T01:43:41;19.07;;;7.57;;
74241;SDS011;62599;49.146;10.426;2022-10-31T01:46:06;17.48;;;7.63;;
74241;SDS011;62599;49.146;10.426;2022-10-31T01:48:31;15.47;;;7.23;;
74241;SDS011;62599;49.146;10.426;2022-10-31T01:50:57;13.93;;;7.20;;
74241;SDS011;62599;49.146;10.426;2022-10-31T01:53:22;10.50;;;5.90;;
74241;SDS011;62599;49.146;10.426;2022-10-31T01:55:47;14.70;;;6.18;;
74241;SDS011;62599;49.146;10.426;2022-10-31T01:58:13;9.57;;;5.50;;
74241;SDS011;62599;49.146;10.426;2022-10-31T02:00:39;10.88;;;5.55;;
74241;SDS011;62599;49.146;10.426;2022-10-31T02:03:06;9.52;;;5.47;;
74241;SDS011;62599;49.146;10.426;2022-10-31T02:05:31;9.97;;;5.37;;
74241;SDS011;62599;49.146;10.426;2022-10-31T02:08:07;9.70;;;5.30;;
74241;SDS011;62599;49.146;10.426;2022-10-31T02:10:36;13.18;;;6.15;;
74241;SDS011;62599;49.146;10.426;2022-10-31T02:13:02;11.05;;;6.10;;
74241;SDS011;62599;49.146;10.426;2022-10-31T02:15:28;8.27;;;5.50;;
74241;SDS011;62599;49.146;10.426;2022-10-31T02:17:58;8.65;;;5.38;;
74241;SDS011;62599;49.146;10.426;2022-10-31T02:20:24;10.07;;;6.07;;
74241;SDS011;62599;49.146;10.426;2022-10-31T02:30:38;11.32;;;5.22;;
74241;SDS011;62599;49.146;10.426;2022-10-31T02:43:32;8.23;;;5.20;;
74241;SDS011;62599;49.146;10.426;2022-10-31T02:46:11;7.65;;;5.28;;
74241;SDS011;62599;49.146;10.426;2022-10-31T02:48:39;8.65;;;5.20;;
74241;SDS011;62599;49.146;10.426;2022-10-31T02:51:05;9.45;;;5.47;;
74241;SDS011;62599;49.146;10.426;2022-10-31T02:53:34;12.07;;;5.40;;
74241;SDS011;62599;49.146;10.426;2022-10-31T02:58:26;8.10;;;4.73;;
74241;SDS011;62599;49.146;10.426;2022-10-31T03:05:55;10.87;;;4.83;;
74241;SDS011;62599;49.146;10.426;2022-10-31T03:08:28;9.45;;;3.92;;
74241;SDS011;62599;49.146;10.426;2022-10-31T03:10:58;10.18;;;4.80;;
74241;SDS011;62599;49.146;10.426;2022-10-31T03:15:50;7.10;;;4.17;;
74241;SDS011;62599;49.146;10.426;2022-10-31T03:20:50;7.15;;;4.32;;
74241;SDS011;62599;49.146;10.426;2022-10-31T03:23:17;6.70;;;3.92;;
74241;SDS011;62599;49.146;10.426;2022-10-31T03:25:44;6.13;;;3.67;;
74241;SDS011;62599;49.146;10.426;2022-10-31T03:28:10;12.73;;;4.65;;
74241;SDS011;62599;49.146;10.426;2022-10-31T03:30:36;7.65;;;4.38;;
74241;SDS011;62599;49.146;10.426;2022-10-31T03:33:06;7.50;;;4.00;;
74241;SDS011;62599;49.146;10.426;2022-10-31T03:35:35;11.30;;;4.40;;
74241;SDS011;62599;49.146;10.426;2022-10-31T03:38:01;10.05;;;4.78;;
74241;SDS011;62599;49.146;10.426;2022-10-31T03:40:27;9.05;;;5.20;;
74241;SDS011;62599;49.146;10.426;2022-10-31T03:43:03;9.80;;;4.97;;
74241;SDS011;62599;49.146;10.426;2022-10-31T03:45:32;9.68;;;4.38;;
74241;SDS011;62599;49.146;10.426;2022-10-31T03:48:00;10.13;;;5.13;;
74241;SDS011;62599;49.146;10.426;2022-10-31T03:50:27;11.17;;;4.73;;
74241;SDS011;62599;49.146;10.426;2022-10-31T03:52:58;9.00;;;5.25;;
74241;SDS011;62599;49.146;10.426;2022-10-31T04:00:53;7.03;;;4.05;;
74241;SDS011;62599;49.146;10.426;2022-10-31T04:03:24;12.27;;;4.63;;
74241;SDS011;62599;49.146;10.426;2022-10-31T04:05:52;11.23;;;4.47;;
74241;SDS011;62599;49.146;10.426;2022-10-31T04:08:20;6.30;;;4.15;;
74241;SDS011;62599;49.146;10.426;2022-10-31T04:10:49;8.88;;;4.57;;
74241;SDS011;62599;49.146;10.426;2022-10-31T04:13:17;9.10;;;4.53;;
74241;SDS011;62599;49.146;10.426;2022-10-31T04:15:42;9.63;;;4.55;;
74241;SDS011;62599;49.146;10.426;2022-10-31T04:18:09;6.90;;;3.75;;
74241;SDS011;62599;49.146;10.426;2022-10-31T04:20:35;11.83;;;5.83;;
74241;SDS011;62599;49.146;10.426;2022-10-31T04:23:00;11.88;;;5.78;;
74241;SDS011;62599;49.146;10.426;2022-10-31T04:25:26;8.38;;;5.78;;
74241;SDS011;62599;49.146;10.426;2022-10-31T04:27:51;9.18;;;5.55;;
74241;SDS011;62599;49.146;10.426;2022-10-31T04:30:17;7.93;;;4.97;;
74241;SDS011;62599;49.146;10.426;2022-10-31T04:32:43;10.40;;;4.53;;
74241;SDS011;62599;49.146;10.426;2022-10-31T04:35:08;9.55;;;5.25;;
74241;SDS011;62599;49.146;10.426;2022-10-31T04:37:33;11.77;;;4.70;;
74241;SDS011;62599;49.146;10.426;2022-10-31T04:39:58;9.23;;;5.03;;
74241;SDS011;62599;49.146;10.426;2022-10-31T04:42:23;10.40;;;4.87;;
74241;SDS011;62599;49.146;10.426;2022-10-31T04:44:49;15.53;;;5.20;;
74241;SDS011;62599;49.146;10.426;2022-10-31T04:47:14;8.87;;;4.90;;
74241;SDS011;62599;49.146;10.426;2022-10-31T04:49:39;8.27;;;4.93;;
74241;SDS011;62599;49.146;10.426;2022-10-31T04:52:04;6.70;;;4.73;;
74241;SDS011;62599;49.146;10.426;2022-10-31T04:54:29;8.47;;;5.00;;
74241;SDS011;62599;49.146;10.426;2022-10-31T04:56:55;9.97;;;4.43;;
74241;SDS011;62599;49.146;10.426;2022-10-31T04:59:20;8.77;;;4.70;;
74241;SDS011;62599;49.146;10.426;2022-10-31T05:01:45;10.70;;;5.50;;
74241;SDS011;62599;49.146;10.426;2022-10-31T05:04:10;10.30;;;4.90;;
74241;SDS011;62599;49.146;10.426;2022-10-31T05:06:36;9.60;;;5.00;;
74241;SDS011;62599;49.146;10.426;2022-10-31T05:09:01;10.67;;;4.77;;
74241;SDS011;62599;49.146;10.426;2022-10-31T05:11:26;8.37;;;3.63;;
74241;SDS011;62599;49.146;10.426;2022-10-31T05:13:51;6.33;;;3.90;;
74241;SDS011;62599;49.146;10.426;2022-10-31T05:16:16;5.17;;;3.67;;
74241;SDS011;62599;49.146;10.426;2022-10-31T05:18:42;13.60;;;5.10;;
74241;SDS011;62599;49.146;10.426;2022-10-31T05:21:07;6.70;;;4.20;;
74241;SDS011;62599;49.146;10.426;2022-10-31T05:23:32;7.37;;;4.33;;
74241;SDS011;62599;49.146;10.426;2022-10-31T05:25:58;8.25;;;4.35;;
74241;SDS011;62599;49.146;10.426;2022-10-31T05:28:23;7.30;;;4.07;;
74241;SDS011;62599;49.146;10.426;2022-10-31T05:30:48;6.63;;;4.27;;
74241;SDS011;62599;49.146;10.426;2022-10-31T05:33:14;9.52;;;4.00;;
74241;SDS011;62599;49.146;10.426;2022-10-31T05:35:39;6.73;;;4.53;;
74241;SDS011;62599;49.146;10.426;2022-10-31T05:38:04;8.67;;;4.13;;
74241;SDS011;62599;49.146;10.426;2022-10-31T05:40:29;5.53;;;3.97;;
74241;SDS011;62599;49.146;10.426;2022-10-31T05:42:55;8.77;;;4.07;;
74241;SDS011;62599;49.146;10.426;2022-10-31T05:45:21;8.18;;;4.40;;
74241;SDS011;62599;49.146;10.426;2022-10-31T05:47:53;8.90;;;4.53;;
74241;SDS011;62599;49.146;10.426;2022-10-31T05:50:19;6.97;;;4.25;;
74241;SDS011;62599;49.146;10.426;2022-10-31T05:52:47;8.03;;;4.57;;
74241;SDS011;62599;49.146;10.426;2022-10-31T05:55:12;9.65;;;4.45;;
74241;SDS011;62599;49.146;10.426;2022-10-31T05:57:37;9.17;;;4.00;;
74241;SDS011;62599;49.146;10.426;2022-10-31T06:00:03;8.97;;;5.23;;
74241;SDS011;62599;49.146;10.426;2022-10-31T06:02:29;8.75;;;4.28;;
74241;SDS011;62599;49.146;10.426;2022-10-31T06:04:59;8.65;;;4.20;;
74241;SDS011;62599;49.146;10.426;2022-10-31T06:07:24;6.00;;;3.97;;
74241;SDS011;62599;49.146;10.426;2022-10-31T06:09:49;7.77;;;4.40;;
74241;SDS011;62599;49.146;10.426;2022-10-31T06:12:14;6.73;;;4.20;;
74241;SDS011;62599;49.146;10.426;2022-10-31T06:14:40;9.03;;;4.33;;
74241;SDS011;62599;49.146;10.426;2022-10-31T06:17:05;7.23;;;4.00;;
74241;SDS011;62599;49.146;10.426;2022-10-31T06:19:30;7.80;;;4.37;;
74241;SDS011;62599;49.146;10.426;2022-10-31T06:21:55;6.33;;;3.87;;
74241;SDS011;62599;49.146;10.426;2022-10-31T06:24:21;7.30;;;3.70;;
74241;SDS011;62599;49.146;10.426;2022-10-31T06:26:46;8.63;;;4.73;;
74241;SDS011;62599;49.146;10.426;2022-10-31T06:29:11;7.50;;;4.90;;
74241;SDS011;62599;49.146;10.426;2022-10-31T06:31:36;6.30;;;4.23;;
74241;SDS011;62599;49.146;10.426;2022-10-31T06:34:01;9.30;;;4.40;;
74241;SDS011;62599;49.146;10.426;2022-10-31T06:36:30;7.50;;;4.60;;
74241;SDS011;62599;49.146;10.426;2022-10-31T06:38:55;7.40;;;4.40;;
74241;SDS011;62599;49.146;10.426;2022-10-31T06:41:20;8.43;;;4.23;;
74241;SDS011;62599;49.146;10.426;2022-10-31T06:43:48;9.43;;;4.17;;
74241;SDS011;62599;49.146;10.426;2022-10-31T06:46:13;7.90;;;4.28;;
74241;SDS011;62599;49.146;10.426;2022-10-31T06:48:40;7.73;;;4.73;;
74241;SDS011;62599;49.146;10.426;2022-10-31T06:51:05;11.93;;;4.30;;
74241;SDS011;62599;49.146;10.426;2022-10-31T06:53:30;7.40;;;4.47;;
74241;SDS011;62599;49.146;10.426;2022-10-31T06:55:56;13.20;;;4.83;;
74241;SDS011;62599;49.146;10.426;2022-10-31T06:58:21;7.25;;;4.28;;
74241;SDS011;62599;49.146;10.426;2022-10-31T07:00:46;8.17;;;4.20;;
74241;SDS011;62599;49.146;10.426;2022-10-31T07:03:12;6.85;;;4.05;;
74241;SDS011;62599;49.146;10.426;2022-10-31T07:05:38;6.57;;;4.30;;
74241;SDS011;62599;49.146;10.426;2022-10-31T07:08:05;6.70;;;4.43;;
74241;SDS011;62599;49.146;10.426;2022-10-31T07:10:32;5.47;;;3.78;;
74241;SDS011;62599;49.146;10.426;2022-10-31T07:13:01;8.90;;;4.60;;
74241;SDS011;62599;49.146;10.426;2022-10-31T07:15:27;6.30;;;3.95;;
74241;SDS011;62599;49.146;10.426;2022-10-31T07:17:53;5.78;;;4.05;;
74241;SDS011;62599;49.146;10.426;2022-10-31T07:20:18;9.55;;;4.55;;
74241;SDS011;62599;49.146;10.426;2022-10-31T07:22:44;7.82;;;4.82;;
74241;SDS011;62599;49.146;10.426;2022-10-31T07:25:21;8.10;;;4.60;;
74241;SDS011;62599;49.146;10.426;2022-10-31T07:27:46;7.15;;;4.68;;
74241;SDS011;62599;49.146;10.426;2022-10-31T07:30:12;6.57;;;4.63;;
74241;SDS011;62599;49.146;10.426;2022-10-31T07:35:03;9.23;;;4.82;;
74241;SDS011;62599;49.146;10.426;2022-10-31T07:37:29;6.20;;;4.63;;
74241;SDS011;62599;49.146;10.426;2022-10-31T07:39:57;8.50;;;4.50;;
74241;SDS011;62599;49.146;10.426;2022-10-31T07:42:22;10.00;;;4.20;;
74241;SDS011;62599;49.146;10.426;2022-10-31T07:44:47;6.07;;;5.00;;
74241;SDS011;62599;49.146;10.426;2022-10-31T07:47:13;6.93;;;4.20;;
74241;SDS011;62599;49.146;10.426;2022-10-31T07:49:38;9.00;;;4.47;;
74241;SDS011;62599;49.146;10.426;2022-10-31T07:52:03;6.10;;;4.47;;
74241;SDS011;62599;49.146;10.426;2022-10-31T07:54:28;11.53;;;4.43;;
74241;SDS011;62599;49.146;10.426;2022-10-31T07:56:57;9.87;;;5.03;;
74241;SDS011;62599;49.146;10.426;2022-10-31T07:59:22;8.52;;;4.57;;
74241;SDS011;62599;49.146;10.426;2022-10-31T08:01:47;7.03;;;5.10;;
74241;SDS011;62599;49.146;10.426;2022-10-31T08:04:12;10.10;;;5.30;;
74241;SDS011;62599;49.146;10.426;2022-10-31T08:06:38;13.77;;;5.33;;
74241;SDS011;62599;49.146;10.426;2022-10-31T08:09:03;8.63;;;4.97;;
74241;SDS011;62599;49.146;10.426;2022-10-31T08:11:28;9.60;;;5.40;;
74241;SDS011;62599;49.146;10.426;2022-10-31T08:13:53;9.03;;;5.33;;
74241;SDS011;62599;49.146;10.426;2022-10-31T08:16:18;12.47;;;5.23;;
74241;SDS011;62599;49.146;10.426;2022-10-31T08:18:44;9.80;;;5.40;;
74241;SDS011;62599;49.146;10.426;2022-10-31T08:21:09;5.90;;;4.67;;
74241;SDS011;62599;49.146;10.426;2022-10-31T08:23:35;10.15;;;5.30;;
74241;SDS011;62599;49.146;10.426;2022-10-31T08:26:00;10.17;;;5.03;;
74241;SDS011;62599;49.146;10.426;2022-10-31T08:28:25;8.83;;;4.93;;
74241;SDS011;62599;49.146;10.426;2022-10-31T08:30:51;9.03;;;5.80;;
74241;SDS011;62599;49.146;10.426;2022-10-31T08:33:17;7.73;;;5.57;;
74241;SDS011;62599;49.146;10.426;2022-10-31T08:35:42;6.65;;;4.57;;
74241;SDS011;62599;49.146;10.426;2022-10-31T08:38:09;9.20;;;5.32;;
74241;SDS011;62599;49.146;10.426;2022-10-31T08:40:34;7.00;;;4.97;;
74241;SDS011;62599;49.146;10.426;2022-10-31T08:43:13;8.02;;;5.20;;
74241;SDS011;62599;49.146;10.426;2022-10-31T08:45:39;9.40;;;6.60;;
74241;SDS011;62599;49.146;10.426;2022-10-31T08:48:05;12.50;;;6.77;;
74241;SDS011;62599;49.146;10.426;2022-10-31T08:50:32;9.48;;;6.55;;
74241;SDS011;62599;49.146;10.426;2022-10-31T08:53:04;13.63;;;7.05;;
74241;SDS011;62599;49.146;10.426;2022-10-31T08:55:30;11.93;;;6.80;;
74241;SDS011;62599;49.146;10.426;2022-10-31T08:57:56;9.50;;;6.40;;
74241;SDS011;62599;49.146;10.426;2022-10-31T09:00:21;13.93;;;6.50;;
74241;SDS011;62599;49.146;10.426;2022-10-31T09:02:46;9.37;;;6.73;;
74241;SDS011;62599;49.146;10.426;2022-10-31T09:05:12;11.03;;;6.00;;
74241;SDS011;62599;49.146;10.426;2022-10-31T09:07:37;12.87;;;6.27;;
74241;SDS011;62599;49.146;10.426;2022-10-31T09:10:02;14.03;;;5.67;;
74241;SDS011;62599;49.146;10.426;2022-10-31T09:12:28;12.93;;;6.40;;
74241;SDS011;62599;49.146;10.426;2022-10-31T09:14:53;14.43;;;6.30;;
74241;SDS011;62599;49.146;10.426;2022-10-31T09:17:18;11.60;;;5.80;;
74241;SDS011;62599;49.146;10.426;2022-10-31T09:19:45;9.75;;;6.13;;
74241;SDS011;62599;49.146;10.426;2022-10-31T09:22:10;11.37;;;6.00;;
74241;SDS011;62599;49.146;10.426;2022-10-31T09:24:35;13.10;;;5.50;;
74241;SDS011;62599;49.146;10.426;2022-10-31T09:27:00;8.70;;;5.27;;
74241;SDS011;62599;49.146;10.426;2022-10-31T09:29:26;6.50;;;5.07;;
74241;SDS011;62599;49.146;10.426;2022-10-31T09:31:51;6.63;;;5.03;;
74241;SDS011;62599;49.146;10.426;2022-10-31T09:34:16;7.57;;;5.40;;
74241;SDS011;62599;49.146;10.426;2022-10-31T09:36:41;11.30;;;5.33;;
74241;SDS011;62599;49.146;10.426;2022-10-31T09:39:08;10.85;;;4.78;;
74241;SDS011;62599;49.146;10.426;2022-10-31T09:44:19;9.80;;;6.03;;
74241;SDS011;62599;49.146;10.426;2022-10-31T09:49:34;8.52;;;4.75;;
74241;SDS011;62599;49.146;10.426;2022-10-31T09:52:03;11.63;;;5.25;;
74241;SDS011;62599;49.146;10.426;2022-10-31T09:56:58;9.52;;;5.55;;
74241;SDS011;62599;49.146;10.426;2022-10-31T09:59:33;8.70;;;4.97;;
74241;SDS011;62599;49.146;10.426;2022-10-31T10:02:19;8.80;;;4.78;;
74241;SDS011;62599;49.146;10.426;2022-10-31T10:07:13;5.50;;;4.00;;
74241;SDS011;62599;49.146;10.426;2022-10-31T10:09:38;8.63;;;5.28;;
74241;SDS011;62599;49.146;10.426;2022-10-31T10:12:08;9.50;;;5.07;;
74241;SDS011;62599;49.146;10.426;2022-10-31T10:20:15;7.57;;;4.68;;
74241;SDS011;62599;49.146;10.426;2022-10-31T10:23:27;7.20;;;5.30;;
74241;SDS011;62599;49.146;10.426;2022-10-31T10:25:37;7.22;;;5.22;;
74241;SDS011;62599;49.146;10.426;2022-10-31T10:33:14;12.67;;;5.67;;
74241;SDS011;62599;49.146;10.426;2022-10-31T10:40:51;10.05;;;5.75;;
74241;SDS011;62599;49.146;10.426;2022-10-31T10:51:20;8.40;;;5.43;;
74241;SDS011;62599;49.146;10.426;2022-10-31T10:53:52;13.15;;;5.43;;
74241;SDS011;62599;49.146;10.426;2022-10-31T10:59:12;11.00;;;6.13;;
74241;SDS011;62599;49.146;10.426;2022-10-31T11:01:38;11.23;;;6.57;;
74241;SDS011;62599;49.146;10.426;2022-10-31T11:04:07;15.98;;;6.65;;
74241;SDS011;62599;49.146;10.426;2022-10-31T11:06:36;9.05;;;6.03;;
74241;SDS011;62599;49.146;10.426;2022-10-31T11:09:08;10.10;;;6.20;;
74241;SDS011;62599;49.146;10.426;2022-10-31T11:11:33;8.10;;;5.78;;
74241;SDS011;62599;49.146;10.426;2022-10-31T11:14:05;7.43;;;4.63;;
74241;SDS011;62599;49.146;10.426;2022-10-31T11:16:37;7.15;;;4.53;;
74241;SDS011;62599;49.146;10.426;2022-10-31T11:19:07;10.25;;;4.88;;
74241;SDS011;62599;49.146;10.426;2022-10-31T11:21:33;9.40;;;4.78;;
74241;SDS011;62599;49.146;10.426;2022-10-31T11:26:34;11.02;;;4.43;;
74241;SDS011;62599;49.146;10.426;2022-10-31T11:29:00;7.72;;;4.20;;
74241;SDS011;62599;49.146;10.426;2022-10-31T11:31:27;9.10;;;4.22;;
74241;SDS011;62599;49.146;10.426;2022-10-31T11:33:59;8.93;;;4.67;;
74241;SDS011;62599;49.146;10.426;2022-10-31T11:36:26;6.88;;;3.90;;
74241;SDS011;62599;49.146;10.426;2022-10-31T11:38:52;16.77;;;4.40;;
74241;SDS011;62599;49.146;10.426;2022-10-31T11:41:27;7.75;;;4.15;;
74241;SDS011;62599;49.146;10.426;2022-10-31T11:43:54;10.05;;;3.78;;
74241;SDS011;62599;49.146;10.426;2022-10-31T11:47:03;9.88;;;3.60;;
74241;SDS011;62599;49.146;10.426;2022-10-31T11:49:19;7.05;;;4.13;;
74241;SDS011;62599;49.146;10.426;2022-10-31T11:51:49;8.10;;;3.78;;
74241;SDS011;62599;49.146;10.426;2022-10-31T11:54:18;6.03;;;3.65;;
74241;SDS011;62599;49.146;10.426;2022-10-31T11:56:45;6.47;;;3.28;;
74241;SDS011;62599;49.146;10.426;2022-10-31T12:02:14;9.27;;;3.22;;
74241;SDS011;62599;49.146;10.426;2022-10-31T12:04:46;7.53;;;3.60;;
74241;SDS011;62599;49.146;10.426;2022-10-31T12:07:12;5.18;;;3.03;;
74241;SDS011;62599;49.146;10.426;2022-10-31T12:09:37;10.97;;;3.93;;
74241;SDS011;62599;49.146;10.426;2022-10-31T12:17:19;8.00;;;3.33;;
74241;SDS011;62599;49.146;10.426;2022-10-31T12:50:52;6.20;;;2.80;;
74241;SDS011;62599;49.146;10.426;2022-10-31T12:58:21;6.07;;;3.67;;
74241;SDS011;62599;49.146;10.426;2022-10-31T13:00:48;6.82;;;4.03;;
74241;SDS011;62599;49.146;10.426;2022-10-31T13:03:32;5.90;;;4.00;;
74241;SDS011;62599;49.146;10.426;2022-10-31T13:06:05;10.05;;;3.95;;
74241;SDS011;62599;49.146;10.426;2022-10-31T13:08:38;7.75;;;3.83;;
74241;SDS011;62599;49.146;10.426;2022-10-31T13:16:16;5.13;;;3.73;;
74241;SDS011;62599;49.146;10.426;2022-10-31T13:23:53;9.52;;;4.43;;
74241;SDS011;62599;49.146;10.426;2022-10-31T13:26:22;7.25;;;4.00;;
74241;SDS011;62599;49.146;10.426;2022-10-31T13:40:42;10.73;;;4.20;;
74241;SDS011;62599;49.146;10.426;2022-10-31T13:45:34;9.87;;;4.07;;
74241;SDS011;62599;49.146;10.426;2022-10-31T13:48:00;7.10;;;3.93;;
74241;SDS011;62599;49.146;10.426;2022-10-31T13:50:27;9.10;;;4.40;;
74241;SDS011;62599;49.146;10.426;2022-10-31T13:53:03;11.73;;;3.70;;
74241;SDS011;62599;49.146;10.426;2022-10-31T13:55:43;10.18;;;4.32;;
74241;SDS011;62599;49.146;10.426;2022-10-31T13:58:22;12.40;;;4.43;;
74241;SDS011;62599;49.146;10.426;2022-10-31T14:01:50;9.50;;;4.22;;
74241;SDS011;62599;49.146;10.426;2022-10-31T14:03:44;11.43;;;4.93;;
74241;SDS011;62599;49.146;10.426;2022-10-31T14:06:10;10.10;;;3.90;;
74241;SDS011;62599;49.146;10.426;2022-10-31T14:08:37;11.48;;;3.92;;
74241;SDS011;62599;49.146;10.426;2022-10-31T14:11:02;6.47;;;3.78;;
74241;SDS011;62599;49.146;10.426;2022-10-31T14:20:53;9.38;;;4.05;;
74241;SDS011;62599;49.146;10.426;2022-10-31T14:28:41;10.57;;;4.55;;
74241;SDS011;62599;49.146;10.426;2022-10-31T14:33:50;10.50;;;4.82;;
74241;SDS011;62599;49.146;10.426;2022-10-31T14:36:17;6.90;;;3.55;;
74241;SDS011;62599;49.146;10.426;2022-10-31T14:41:18;7.03;;;3.80;;
74241;SDS011;62599;49.146;10.426;2022-10-31T14:46:39;8.63;;;3.70;;
74241;SDS011;62599;49.146;10.426;2022-10-31T14:51:51;5.85;;;3.50;;
74241;SDS011;62599;49.146;10.426;2022-10-31T14:54:18;7.75;;;3.50;;
74241;SDS011;62599;49.146;10.426;2022-10-31T14:56:55;6.07;;;3.72;;
74241;SDS011;62599;49.146;10.426;2022-10-31T14:59:23;9.30;;;4.63;;
74241;SDS011;62599;49.146;10.426;2022-10-31T15:01:56;8.48;;;3.95;;
74241;SDS011;62599;49.146;10.426;2022-10-31T15:04:24;5.78;;;3.88;;
74241;SDS011;62599;49.146;10.426;2022-10-31T15:06:51;5.25;;;3.60;;
74241;SDS011;62599;49.146;10.426;2022-10-31T15:09:25;6.95;;;4.22;;
74241;SDS011;62599;49.146;10.426;2022-10-31T15:11:51;7.93;;;4.38;;
74241;SDS011;62599;49.146;10.426;2022-10-31T15:14:23;8.70;;;4.80;;
74241;SDS011;62599;49.146;10.426;2022-10-31T15:16:49;9.30;;;4.75;;
74241;SDS011;62599;49.146;10.426;2022-10-31T15:19:16;7.90;;;4.07;;
74241;SDS011;62599;49.146;10.426;2022-10-31T15:21:44;7.07;;;4.07;;
74241;SDS011;62599;49.146;10.426;2022-10-31T15:24:15;9.65;;;4.90;;
74241;SDS011;62599;49.146;10.426;2022-10-31T15:26:44;6.25;;;4.53;;
74241;SDS011;62599;49.146;10.426;2022-10-31T15:29:11;7.07;;;4.78;;
74241;SDS011;62599;49.146;10.426;2022-10-31T15:31:37;9.43;;;4.90;;
74241;SDS011;62599;49.146;10.426;2022-10-31T15:34:04;6.80;;;5.00;;
74241;SDS011;62599;49.146;10.426;2022-10-31T15:36:30;7.32;;;4.43;;
74241;SDS011;62599;49.146;10.426;2022-10-31T15:38:56;8.27;;;5.53;;
74241;SDS011;62599;49.146;10.426;2022-10-31T15:43:57;10.45;;;5.90;;
74241;SDS011;62599;49.146;10.426;2022-10-31T15:46:24;8.10;;;5.88;;
74241;SDS011;62599;49.146;10.426;2022-10-31T15:48:52;9.20;;;4.90;;
74241;SDS011;62599;49.146;10.426;2022-10-31T15:51:17;9.63;;;4.83;;
74241;SDS011;62599;49.146;10.426;2022-10-31T15:53:50;7.43;;;4.80;;
74241;SDS011;62599;49.146;10.426;2022-10-31T15:56:24;6.22;;;4.25;;
74241;SDS011;62599;49.146;10.426;2022-10-31T15:58:50;8.65;;;5.82;;
74241;SDS011;62599;49.146;10.426;2022-10-31T16:01:24;11.40;;;5.93;;
74241;SDS011;62599;49.146;10.426;2022-10-31T16:04:50;10.18;;;5.53;;
74241;SDS011;62599;49.146;10.426;2022-10-31T16:09:21;11.10;;;6.22;;
74241;SDS011;62599;49.146;10.426;2022-10-31T16:11:46;11.85;;;7.35;;
74241;SDS011;62599;49.146;10.426;2022-10-31T16:16:41;12.33;;;7.90;;
74241;SDS011;62599;49.146;10.426;2022-10-31T16:21:36;15.48;;;8.48;;
74241;SDS011;62599;49.146;10.426;2022-10-31T16:24:11;13.70;;;9.88;;
74241;SDS011;62599;49.146;10.426;2022-10-31T16:26:37;17.40;;;11.27;;
74241;SDS011;62599;49.146;10.426;2022-10-31T16:29:03;28.87;;;16.40;;
74241;SDS011;62599;49.146;10.426;2022-10-31T16:31:38;28.03;;;18.37;;
74241;SDS011;62599;49.146;10.426;2022-10-31T16:34:13;37.53;;;18.88;;
74241;SDS011;62599;49.146;10.426;2022-10-31T16:36:38;30.83;;;18.90;;
74241;SDS011;62599;49.146;10.426;2022-10-31T16:39:05;33.78;;;19.92;;
74241;SDS011;62599;49.146;10.426;2022-10-31T16:41:30;33.28;;;18.58;;
74241;SDS011;62599;49.146;10.426;2022-10-31T16:43:56;36.95;;;20.63;;
74241;SDS011;62599;49.146;10.426;2022-10-31T16:46:23;32.30;;;18.53;;
74241;SDS011;62599;49.146;10.426;2022-10-31T16:48:48;29.85;;;18.63;;
74241;SDS011;62599;49.146;10.426;2022-10-31T16:51:13;23.77;;;15.27;;
74241;SDS011;62599;49.146;10.426;2022-10-31T16:53:38;26.70;;;14.37;;
74241;SDS011;62599;49.146;10.426;2022-10-31T16:56:04;23.87;;;15.50;;
74241;SDS011;62599;49.146;10.426;2022-10-31T16:58:31;33.70;;;16.23;;
74241;SDS011;62599;49.146;10.426;2022-10-31T17:00:57;20.33;;;13.70;;
74241;SDS011;62599;49.146;10.426;2022-10-31T17:03:23;23.00;;;13.40;;
74241;SDS011;62599;49.146;10.426;2022-10-31T17:05:48;21.77;;;12.87;;
74241;SDS011;62599;49.146;10.426;2022-10-31T17:08:13;27.20;;;13.10;;
74241;SDS011;62599;49.146;10.426;2022-10-31T17:10:39;20.60;;;12.97;;
74241;SDS011;62599;49.146;10.426;2022-10-31T17:13:05;27.25;;;14.30;;
74241;SDS011;62599;49.146;10.426;2022-10-31T17:15:41;22.95;;;13.52;;
74241;SDS011;62599;49.146;10.426;2022-10-31T17:18:10;24.75;;;14.43;;
74241;SDS011;62599;49.146;10.426;2022-10-31T17:20:36;28.75;;;17.23;;
74241;SDS011;62599;49.146;10.426;2022-10-31T17:23:01;27.33;;;15.27;;
74241;SDS011;62599;49.146;10.426;2022-10-31T17:25:27;26.30;;;15.63;;
74241;SDS011;62599;49.146;10.426;2022-10-31T17:27:53;35.55;;;17.90;;
74241;SDS011;62599;49.146;10.426;2022-10-31T17:30:19;29.43;;;17.57;;